Cap Isabel — VRGA2 — position and weather

sailwx.info

Track history (hours):
 
Tides and Currents Weather Stations Pressure Air Temp Water Temp Dewpoint Dewpoint Depression Visibility Wind Speed Wind Dir Waves Ship Positions

Cap Isabel

Last reported at 2014-Nov-27 05:06 UTC. Time now 2014-Nov-28 13:31 UTC.
Position N 37°54' W 076°09'.

Length 264 m; draft 9.6 m.

Type: Ship (hazmat cat C). MMSI: 477639500.

Date/timePositionNaut miles runAvg speedWind from/ knotsBaromVisibWave heightAir tempDewpointWater temp
2014-Nov-27 05:06N 37°54' W 076°09'5220.6
2014-Nov-27 02:33N 38°45' W 076°26'1817.9
2014-Nov-27 01:34N 39°03' W 076°23'1111.5
2014-Nov-27 00:34N 39°12' W 076°31'3 3.4
2014-Nov-26 23:33N 39°15' W 076°33'0 0.0
2014-Nov-26 22:30N 39°15' W 076°33'0 0.0
2014-Nov-26 21:33N 39°15' W 076°33'0 0.0
2014-Nov-26 20:30N 39°15' W 076°33'0 0.0
2014-Nov-26 19:30N 39°15' W 076°33'0 0.0
2014-Nov-26 18:33N 39°15' W 076°33'0 0.0
2014-Nov-26 17:33N 39°15' W 076°33'0 0.0
2014-Nov-26 16:27N 39°15' W 076°33'0 0.0
2014-Nov-26 15:33N 39°15' W 076°33'0 0.0
2014-Nov-26 14:33N 39°15' W 076°33'0 0.0
2014-Nov-26 13:33N 39°15' W 076°33'0 0.0
2014-Nov-26 12:27N 39°15' W 076°33'0 0.0
2014-Nov-26 11:33N 39°15' W 076°33'0 0.0
2014-Nov-26 10:33N 39°15' W 076°33'1 0.6
2014-Nov-26 09:33N 39°15' W 076°32'7 6.6
2014-Nov-26 08:33N 39°11' W 076°26'1313.1
2014-Nov-26 07:33N 38°58' W 076°24'2020.4
2014-Nov-26 06:33N 38°37' W 076°26'4220.5
2014-Nov-26 04:31N 37°57' W 076°10'127 7.9
2014-Nov-25 12:31N 39°17' W 074°05'1717.2
2014-Nov-25 11:33N 39°33' W 073°57'1717.2
2014-Nov-25 10:33N 39°50' W 073°52'2914.0
2014-Nov-25 08:28N 40°19' W 073°49'8 8.7
2014-Nov-25 07:33N 40°27' W 073°49'1111.5
2014-Nov-25 06:33N 40°33' W 074°02'7 7.3
2014-Nov-25 05:33N 40°40' W 074°05'0 0.0
2014-Nov-25 04:32N 40°40' W 074°05'0 0.0
2014-Nov-25 03:32N 40°40' W 074°05'0 0.0
2014-Nov-25 02:32N 40°40' W 074°05'0 0.0
2014-Nov-25 01:32N 40°40' W 074°05'0 0.0
2014-Nov-25 00:32N 40°40' W 074°05'0 0.0
2014-Nov-24 23:32N 40°40' W 074°05'0 0.0
2014-Nov-24 22:32N 40°40' W 074°05'0 0.0
2014-Nov-24 21:32N 40°40' W 074°05'0 0.0
2014-Nov-24 20:32N 40°40' W 074°05'0 0.0
2014-Nov-24 19:32N 40°40' W 074°05'0 0.0
2014-Nov-24 18:32N 40°40' W 074°05'0 0.0
2014-Nov-24 17:32N 40°40' W 074°05'0 0.0
2014-Nov-24 16:32N 40°40' W 074°05'0 0.0
2014-Nov-24 15:32N 40°40' W 074°05'0 0.0
2014-Nov-24 14:32N 40°40' W 074°05'0 0.0
2014-Nov-24 13:32N 40°40' W 074°05'0 0.0
2014-Nov-24 12:32N 40°40' W 074°05'0 0.0
2014-Nov-24 11:32N 40°40' W 074°05'1 1.3
2014-Nov-24 10:33N 40°39' W 074°03'6 6.4
2014-Nov-24 09:33N 40°33' W 074°02'1111.0
2014-Nov-24 08:33N 40°27' W 073°49'20 9.8
2014-Nov-24 06:33N 40°08' W 073°44'1514.6
2014-Nov-24 05:33N 39°53' W 073°41'1414.1
2014-Nov-24 04:33N 39°39' W 073°42'1414.3
2014-Nov-24 03:33N 39°25' W 073°45'1413.6
2014-Nov-24 02:32N 39°12' W 073°49'1313.8
2014-Nov-24 01:33N 38°59' W 073°53'1615.8
2014-Nov-24 00:32N 38°43' W 073°58'1616.1
2014-Nov-23 23:34N 38°27' W 074°01'1616.4
2014-Nov-23 22:33N 38°11' W 074°06'1616.1
2014-Nov-23 21:33N 37°56' W 074°10'1615.8
2014-Nov-23 20:33N 37°40' W 074°14'70419.5
2014-Nov-22 08:31N 26°53' W 079°42'2121.6
2014-Nov-22 07:33N 26°32' W 079°47'2020.4
2014-Nov-22 06:33N 26°13' W 079°54'1312.9
2014-Nov-22 05:33N 26°06' W 080°06'2 1.5
2014-Nov-22 04:29N 26°04' W 080°07'0 0.0
2014-Nov-22 03:29N 26°04' W 080°07'0 0.0
2014-Nov-22 02:29N 26°04' W 080°07'0 0.0
2014-Nov-22 01:32N 26°04' W 080°07'0 0.0
2014-Nov-22 00:32N 26°04' W 080°07'0 0.0
2014-Nov-21 23:32N 26°04' W 080°07'1 0.6
2014-Nov-21 22:33N 26°05' W 080°07'7 7.4
2014-Nov-21 21:33N 26°00' W 080°01'1616.0
2014-Nov-21 20:33N 25°44' W 079°57'  
Track history (hours):
 
Tides and Currents Weather Stations Pressure Air Temp Water Temp Dewpoint Dewpoint Depression Visibility Wind Speed Wind Dir Waves Ship Positions

Cap Isabel

Last reported at 2014-Nov-27 05:06 UTC. Time now 2014-Nov-28 13:31 UTC.
Position N 37°54' W 076°09'.

Length 264 m; draft 9.6 m.

Type: Ship (hazmat cat C). MMSI: 477639500.

Date/timePositionNaut miles runAvg speedWind from/ knotsBaromVisibWave heightAir tempDewpointWater temp
2014-Nov-27 05:06N 37°54' W 076°09'5220.6
2014-Nov-27 02:33N 38°45' W 076°26'1817.9
2014-Nov-27 01:34N 39°03' W 076°23'1111.5
2014-Nov-27 00:34N 39°12' W 076°31'3 3.4
2014-Nov-26 23:33N 39°15' W 076°33'0 0.0
2014-Nov-26 22:30N 39°15' W 076°33'0 0.0
2014-Nov-26 21:33N 39°15' W 076°33'0 0.0
2014-Nov-26 20:30N 39°15' W 076°33'0 0.0
2014-Nov-26 19:30N 39°15' W 076°33'0 0.0
2014-Nov-26 18:33N 39°15' W 076°33'0 0.0
2014-Nov-26 17:33N 39°15' W 076°33'0 0.0
2014-Nov-26 16:27N 39°15' W 076°33'0 0.0
2014-Nov-26 15:33N 39°15' W 076°33'0 0.0
2014-Nov-26 14:33N 39°15' W 076°33'0 0.0
2014-Nov-26 13:33N 39°15' W 076°33'0 0.0
2014-Nov-26 12:27N 39°15' W 076°33'0 0.0
2014-Nov-26 11:33N 39°15' W 076°33'0 0.0
2014-Nov-26 10:33N 39°15' W 076°33'1 0.6
2014-Nov-26 09:33N 39°15' W 076°32'7 6.6
2014-Nov-26 08:33N 39°11' W 076°26'1313.1
2014-Nov-26 07:33N 38°58' W 076°24'2020.4
2014-Nov-26 06:33N 38°37' W 076°26'4220.5
2014-Nov-26 04:31N 37°57' W 076°10'127 7.9
2014-Nov-25 12:31N 39°17' W 074°05'1717.2
2014-Nov-25 11:33N 39°33' W 073°57'1717.2
2014-Nov-25 10:33N 39°50' W 073°52'2914.0
2014-Nov-25 08:28N 40°19' W 073°49'8 8.7
2014-Nov-25 07:33N 40°27' W 073°49'1111.5
2014-Nov-25 06:33N 40°33' W 074°02'7 7.3
2014-Nov-25 05:33N 40°40' W 074°05'0 0.0
2014-Nov-25 04:32N 40°40' W 074°05'0 0.0
2014-Nov-25 03:32N 40°40' W 074°05'0 0.0
2014-Nov-25 02:32N 40°40' W 074°05'0 0.0
2014-Nov-25 01:32N 40°40' W 074°05'0 0.0
2014-Nov-25 00:32N 40°40' W 074°05'0 0.0
2014-Nov-24 23:32N 40°40' W 074°05'0 0.0
2014-Nov-24 22:32N 40°40' W 074°05'0 0.0
2014-Nov-24 21:32N 40°40' W 074°05'0 0.0
2014-Nov-24 20:32N 40°40' W 074°05'0 0.0
2014-Nov-24 19:32N 40°40' W 074°05'0 0.0
2014-Nov-24 18:32N 40°40' W 074°05'0 0.0
2014-Nov-24 17:32N 40°40' W 074°05'0 0.0
2014-Nov-24 16:32N 40°40' W 074°05'0 0.0
2014-Nov-24 15:32N 40°40' W 074°05'0 0.0
2014-Nov-24 14:32N 40°40' W 074°05'0 0.0
2014-Nov-24 13:32N 40°40' W 074°05'0 0.0
2014-Nov-24 12:32N 40°40' W 074°05'0 0.0
2014-Nov-24 11:32N 40°40' W 074°05'1 1.3
2014-Nov-24 10:33N 40°39' W 074°03'6 6.4
2014-Nov-24 09:33N 40°33' W 074°02'1111.0
2014-Nov-24 08:33N 40°27' W 073°49'20 9.8
2014-Nov-24 06:33N 40°08' W 073°44'1514.6
2014-Nov-24 05:33N 39°53' W 073°41'1414.1
2014-Nov-24 04:33N 39°39' W 073°42'1414.3
2014-Nov-24 03:33N 39°25' W 073°45'1413.6
2014-Nov-24 02:32N 39°12' W 073°49'1313.8
2014-Nov-24 01:33N 38°59' W 073°53'1615.8
2014-Nov-24 00:32N 38°43' W 073°58'1616.1
2014-Nov-23 23:34N 38°27' W 074°01'1616.4
2014-Nov-23 22:33N 38°11' W 074°06'1616.1
2014-Nov-23 21:33N 37°56' W 074°10'1615.8
2014-Nov-23 20:33N 37°40' W 074°14'70419.5
2014-Nov-22 08:31N 26°53' W 079°42'2121.6
2014-Nov-22 07:33N 26°32' W 079°47'2020.4
2014-Nov-22 06:33N 26°13' W 079°54'1312.9
2014-Nov-22 05:33N 26°06' W 080°06'2 1.5
2014-Nov-22 04:29N 26°04' W 080°07'0 0.0
2014-Nov-22 03:29N 26°04' W 080°07'0 0.0
2014-Nov-22 02:29N 26°04' W 080°07'0 0.0
2014-Nov-22 01:32N 26°04' W 080°07'0 0.0
2014-Nov-22 00:32N 26°04' W 080°07'0 0.0
2014-Nov-21 23:32N 26°04' W 080°07'1 0.6
2014-Nov-21 22:33N 26°05' W 080°07'7 7.4
2014-Nov-21 21:33N 26°00' W 080°01'1616.0
2014-Nov-21 20:33N 25°44' W 079°57'  

Dump ship's entire track history